createdAt,value
2022-12-03T00:01:36.046Z,26.40
2022-12-03T00:04:04.308Z,25.60
2022-12-03T00:06:34.687Z,25.20
2022-12-03T00:09:04.612Z,26.70
2022-12-03T00:11:32.867Z,28.10
2022-12-03T00:14:01.020Z,25.70
2022-12-03T00:16:29.108Z,25.80
2022-12-03T00:18:57.182Z,22.60
2022-12-03T00:21:25.354Z,25.60
2022-12-03T00:23:53.457Z,27.90
2022-12-03T00:26:21.584Z,24.80
2022-12-03T00:28:49.776Z,22.10
2022-12-03T00:31:18.063Z,28.20
2022-12-03T00:33:46.165Z,25.70
2022-12-03T00:36:14.211Z,25.20
2022-12-03T00:38:42.326Z,26.80
2022-12-03T00:41:10.358Z,24.60
2022-12-03T00:43:38.430Z,26.40
2022-12-03T00:46:06.553Z,26.00
2022-12-03T00:48:34.677Z,25.40
2022-12-03T00:51:02.846Z,26.40
2022-12-03T00:53:30.903Z,27.40
2022-12-03T00:55:59.141Z,26.00
2022-12-03T00:58:27.186Z,27.80
2022-12-03T01:00:55.235Z,25.80
2022-12-03T01:03:23.256Z,27.30
2022-12-03T01:05:51.351Z,26.00
2022-12-03T01:08:19.496Z,27.90
2022-12-03T01:10:47.497Z,27.20
2022-12-03T01:13:15.541Z,26.50
2022-12-03T01:15:43.749Z,26.50
2022-12-03T01:18:11.836Z,30.10
2022-12-03T01:20:39.956Z,24.50
2022-12-03T01:23:08.060Z,25.90
2022-12-03T01:25:36.074Z,26.90
2022-12-03T01:28:04.169Z,26.90
2022-12-03T01:30:52.200Z,26.30
2022-12-03T01:33:20.283Z,25.30
2022-12-03T01:35:48.310Z,27.20
2022-12-03T01:38:16.324Z,27.00
2022-12-03T01:40:44.420Z,27.60
2022-12-03T01:43:12.420Z,25.10
2022-12-03T01:45:40.570Z,27.20
2022-12-03T01:48:13.804Z,25.50
2022-12-03T01:50:42.841Z,24.50
2022-12-03T01:53:15.726Z,26.20
2022-12-03T01:55:48.445Z,25.40
2022-12-03T01:58:20.379Z,28.90
2022-12-03T02:00:48.400Z,26.10
2022-12-03T02:03:23.492Z,26.70
2022-12-03T02:05:52.671Z,27.60
2022-12-03T02:08:31.023Z,26.10
2022-12-03T02:11:03.361Z,25.70
2022-12-03T02:13:32.253Z,25.30
2022-12-03T02:16:00.458Z,27.30
2022-12-03T02:18:28.599Z,27.50
2022-12-03T02:21:06.882Z,27.90
2022-12-03T02:23:45.754Z,27.40
2022-12-03T02:26:13.803Z,26.20
2022-12-03T02:28:42.116Z,25.70
2022-12-03T02:31:10.308Z,27.20
2022-12-03T02:33:38.824Z,26.20
2022-12-03T02:36:07.214Z,26.60
2022-12-03T02:38:36.411Z,28.90
2022-12-03T02:41:09.766Z,33.80
2022-12-03T02:43:38.997Z,29.00
2022-12-03T02:46:08.171Z,29.70
2022-12-03T02:48:38.909Z,27.90
2022-12-03T02:51:11.272Z,26.90
2022-12-03T02:53:44.813Z,26.70
2022-12-03T02:56:16.208Z,27.10
2022-12-03T02:58:47.128Z,29.80
2022-12-03T03:01:16.912Z,27.50
2022-12-03T03:03:47.432Z,28.60
2022-12-03T03:06:17.332Z,26.20
2022-12-03T03:08:45.686Z,27.60
2022-12-03T03:11:13.826Z,26.00
2022-12-03T03:13:42.206Z,30.30
2022-12-03T03:16:10.691Z,27.60
2022-12-03T03:18:39.859Z,29.20
2022-12-03T03:21:08.264Z,29.30
2022-12-03T03:23:36.418Z,27.20
2022-12-03T03:26:12.060Z,28.00
2022-12-03T03:28:48.830Z,28.30
2022-12-03T03:31:21.464Z,30.20
2022-12-03T03:33:50.399Z,31.20
2022-12-03T03:36:20.271Z,30.70
2022-12-03T03:38:49.035Z,33.50
2022-12-03T03:41:18.494Z,29.60
2022-12-03T03:43:48.522Z,24.70
2022-12-03T03:46:17.903Z,27.50
2022-12-03T03:48:48.726Z,29.00
2022-12-03T03:51:18.004Z,28.70
2022-12-03T03:53:49.097Z,29.60
2022-12-03T03:56:19.528Z,26.30
2022-12-03T03:58:47.717Z,25.60
2022-12-03T04:01:17.144Z,25.60
2022-12-03T04:03:45.363Z,27.00
2022-12-03T04:06:13.416Z,26.90
2022-12-03T04:08:41.451Z,25.10
2022-12-03T04:11:28.222Z,27.70
2022-12-03T04:13:56.272Z,25.40
2022-12-03T04:16:24.355Z,30.20
2022-12-03T04:18:52.421Z,28.50
2022-12-03T04:21:41.791Z,26.80
2022-12-03T04:24:11.728Z,26.40
2022-12-03T04:26:58.451Z,26.90
2022-12-03T04:29:26.462Z,23.30
2022-12-03T04:32:13.092Z,28.30
2022-12-03T04:34:59.923Z,25.70
2022-12-03T04:37:27.985Z,25.50
2022-12-03T04:39:56.116Z,27.50
2022-12-03T04:42:24.166Z,28.30
2022-12-03T04:44:52.531Z,23.60
2022-12-03T04:47:22.027Z,24.90
2022-12-03T04:49:51.839Z,25.70
2022-12-03T04:52:21.330Z,24.60
2022-12-03T04:54:49.410Z,25.00
2022-12-03T04:57:17.577Z,27.00
2022-12-03T04:59:45.861Z,25.90
2022-12-03T05:02:14.004Z,22.90
2022-12-03T05:04:43.424Z,25.60
2022-12-03T05:07:11.835Z,23.70
2022-12-03T05:09:39.919Z,26.90
2022-12-03T05:12:07.976Z,26.50
2022-12-03T05:14:36.731Z,27.00
2022-12-03T05:17:04.915Z,26.60
2022-12-03T05:19:51.735Z,28.60
2022-12-03T05:22:19.845Z,30.80
2022-12-03T05:24:47.865Z,32.00
2022-12-03T05:27:20.216Z,29.50
2022-12-03T05:29:52.055Z,29.30
2022-12-03T05:32:20.480Z,27.80
2022-12-03T05:34:48.550Z,23.70
2022-12-03T05:37:16.688Z,25.00
2022-12-03T05:39:44.727Z,25.50
2022-12-03T05:42:31.439Z,26.50
2022-12-03T05:44:59.477Z,24.80
2022-12-03T05:47:27.514Z,24.80
2022-12-03T05:49:55.610Z,26.90
2022-12-03T05:52:23.662Z,26.70
2022-12-03T05:54:51.989Z,29.50
2022-12-03T05:57:20.576Z,28.70
2022-12-03T05:59:48.615Z,31.10
2022-12-03T06:02:16.709Z,37.70
2022-12-03T06:04:44.855Z,32.10
2022-12-03T06:07:14.290Z,30.80
2022-12-03T06:09:42.571Z,28.20
2022-12-03T06:12:10.604Z,27.30
2022-12-03T06:14:38.701Z,27.00
2022-12-03T06:17:06.852Z,33.30
2022-12-03T06:19:35.012Z,31.10
2022-12-03T06:22:03.144Z,31.80
2022-12-03T06:24:31.193Z,32.60
2022-12-03T06:26:59.259Z,33.70
2022-12-03T06:29:27.298Z,32.10
2022-12-03T06:31:55.454Z,31.90
2022-12-03T06:34:23.494Z,30.00
2022-12-03T06:36:51.527Z,29.10
2022-12-03T06:39:19.684Z,30.20
2022-12-03T06:41:47.715Z,31.30
2022-12-03T06:44:15.782Z,28.10
2022-12-03T06:46:43.916Z,27.00
2022-12-03T06:49:11.949Z,32.40
2022-12-03T06:51:40.093Z,27.80
2022-12-03T06:54:08.171Z,24.20
2022-12-03T06:56:41.885Z,12.70
2022-12-03T06:59:14.026Z,29.80
2022-12-03T07:01:42.344Z,31.40
2022-12-03T07:04:10.489Z,28.80
2022-12-03T07:06:38.603Z,26.00
2022-12-03T07:09:06.691Z,22.60
2022-12-03T07:11:40.567Z,22.30
2022-12-03T07:14:11.636Z,24.70
2022-12-03T07:16:40.658Z,25.70
2022-12-03T07:19:09.817Z,23.80
2022-12-03T07:21:38.269Z,25.40
2022-12-03T07:24:06.885Z,30.10
2022-12-03T07:26:35.019Z,27.30
2022-12-03T07:29:03.233Z,26.60
2022-12-03T07:31:31.430Z,26.30
2022-12-03T07:33:59.652Z,24.00
2022-12-03T07:36:27.669Z,24.90
2022-12-03T07:38:55.934Z,23.70
2022-12-03T07:41:23.959Z,25.10
2022-12-03T07:43:52.009Z,26.40
2022-12-03T07:46:20.113Z,27.90
2022-12-03T07:48:48.273Z,42.00
2022-12-03T07:51:16.438Z,48.10
2022-12-03T07:53:44.453Z,35.90
2022-12-03T07:56:12.548Z,33.00
2022-12-03T07:58:40.658Z,31.30
2022-12-03T08:01:08.843Z,28.40
2022-12-03T08:03:37.006Z,30.10
2022-12-03T08:06:05.223Z,27.90
2022-12-03T08:08:33.273Z,31.20
2022-12-03T08:11:02.322Z,28.50
2022-12-03T08:13:30.874Z,25.80
2022-12-03T08:16:09.142Z,29.00
2022-12-03T08:18:37.328Z,29.90
2022-12-03T08:21:06.858Z,33.60
2022-12-03T08:23:34.910Z,40.10
2022-12-03T08:26:27.598Z,31.90
2022-12-03T08:28:55.715Z,38.40
2022-12-03T08:31:32.765Z,29.80
2022-12-03T08:34:23.737Z,31.60
2022-12-03T08:36:58.060Z,25.50
2022-12-03T08:39:30.515Z,24.10
2022-12-03T08:42:28.146Z,30.70
2022-12-03T08:44:57.237Z,31.40
2022-12-03T08:47:25.509Z,92.50
2022-12-03T08:50:03.348Z,39.70
2022-12-03T08:52:33.877Z,49.00
2022-12-03T08:55:38.221Z,27.30
2022-12-03T08:58:32.255Z,35.70
2022-12-03T09:01:05.930Z,35.90
2022-12-03T09:03:34.636Z,56.80
2022-12-03T09:06:02.811Z,42.50
2022-12-03T09:08:31.723Z,54.20
2022-12-03T09:10:59.796Z,67.20
2022-12-03T09:13:27.812Z,34.20
2022-12-03T09:15:55.965Z,47.10
2022-12-03T09:18:24.093Z,39.30
2022-12-03T09:20:52.112Z,33.40
2022-12-03T09:23:20.158Z,38.20
2022-12-03T09:25:48.174Z,74.30
2022-12-03T09:28:16.170Z,43.90
2022-12-03T09:30:44.216Z,57.60
2022-12-03T09:33:12.364Z,51.50
2022-12-03T09:35:40.407Z,28.00
2022-12-03T09:38:08.448Z,24.60
2022-12-03T09:40:36.524Z,31.10
2022-12-03T09:43:05.271Z,27.30
2022-12-03T09:45:33.465Z,25.40
2022-12-03T09:48:04.136Z,33.40
2022-12-03T09:50:32.722Z,27.20
2022-12-03T09:53:03.971Z,29.60
2022-12-03T09:55:32.644Z,28.70
2022-12-03T09:58:00.937Z,29.30
2022-12-03T10:00:30.498Z,25.30
2022-12-03T10:03:03.143Z,26.20
2022-12-03T10:05:31.214Z,25.70
2022-12-03T10:08:06.918Z,26.80
2022-12-03T10:10:36.557Z,34.30
2022-12-03T10:13:06.177Z,36.60
2022-12-03T10:15:34.418Z,35.80
2022-12-03T10:18:21.798Z,28.10
2022-12-03T10:20:51.500Z,25.90
2022-12-03T10:23:24.069Z,25.70
2022-12-03T10:25:58.282Z,26.00
2022-12-03T10:28:37.007Z,28.40
2022-12-03T10:31:07.723Z,34.70
2022-12-03T10:33:44.994Z,29.00
2022-12-03T10:36:19.564Z,36.90
2022-12-03T10:39:12.985Z,32.20
2022-12-03T10:41:42.890Z,28.50
2022-12-03T10:44:22.497Z,40.60
2022-12-03T10:47:16.049Z,32.10
2022-12-03T10:49:44.298Z,28.80
2022-12-03T10:52:26.059Z,30.10
2022-12-03T10:57:23.630Z,27.00
2022-12-03T10:59:51.789Z,27.00
2022-12-03T11:02:22.815Z,28.30
2022-12-03T11:04:51.931Z,29.70
2022-12-03T11:07:22.294Z,28.40
2022-12-03T11:09:52.606Z,60.70
2022-12-03T11:12:26.364Z,54.70
2022-12-03T11:14:55.125Z,37.60
2022-12-03T11:17:41.624Z,31.70
2022-12-03T11:20:32.386Z,31.80
2022-12-03T11:23:00.485Z,26.80
2022-12-03T11:25:28.553Z,25.00
2022-12-03T11:28:11.941Z,23.10
2022-12-03T11:30:48.925Z,24.20
2022-12-03T11:33:27.040Z,29.00
2022-12-03T11:36:04.330Z,26.80
2022-12-03T11:38:52.243Z,35.90
2022-12-03T11:41:28.919Z,25.30
2022-12-03T11:44:04.275Z,32.00
2022-12-03T11:46:43.807Z,24.60
2022-12-03T11:49:35.737Z,25.20
2022-12-03T11:52:20.261Z,25.90
2022-12-03T11:54:53.214Z,20.60
2022-12-03T11:57:31.010Z,36.00
2022-12-03T12:00:21.202Z,30.00
2022-12-03T12:02:50.826Z,24.30
2022-12-03T12:05:29.559Z,26.80
2022-12-03T12:07:57.803Z,24.90
2022-12-03T12:10:39.225Z,29.20
2022-12-03T12:13:24.881Z,27.70
2022-12-03T12:15:53.269Z,26.90
2022-12-03T12:18:43.638Z,24.20
2022-12-03T12:21:42.016Z,27.50
2022-12-03T12:24:29.195Z,27.30
2022-12-03T12:27:00.171Z,29.20
2022-12-03T12:29:28.570Z,33.90
2022-12-03T12:32:17.495Z,31.30
2022-12-03T12:34:51.297Z,28.80
2022-12-03T12:37:36.454Z,28.60
2022-12-03T12:40:12.954Z,26.00
2022-12-03T12:42:50.367Z,26.60
2022-12-03T12:45:30.370Z,28.50
2022-12-03T12:48:07.290Z,26.90
2022-12-03T12:50:37.334Z,29.00
2022-12-03T12:53:26.163Z,25.90
2022-12-03T12:56:07.142Z,25.40
2022-12-03T12:58:36.168Z,24.60
2022-12-03T13:01:08.067Z,26.90
2022-12-03T13:03:39.867Z,25.10
2022-12-03T13:06:15.157Z,22.80
2022-12-03T13:08:46.024Z,26.10
2022-12-03T13:11:39.683Z,25.20
2022-12-03T13:14:16.331Z,26.70
2022-12-03T13:16:45.271Z,24.20
2022-12-03T13:19:21.767Z,25.00
2022-12-03T13:21:51.979Z,25.50
2022-12-03T13:24:41.512Z,25.10
2022-12-03T13:27:19.749Z,24.80
2022-12-03T13:30:09.926Z,24.30
2022-12-03T13:32:38.541Z,25.30
2022-12-03T13:35:31.153Z,26.20
2022-12-03T13:37:59.567Z,26.40
2022-12-03T13:40:30.883Z,24.20
2022-12-03T13:42:59.594Z,26.00
2022-12-03T13:45:40.507Z,28.30
2022-12-03T13:48:17.728Z,29.40
2022-12-03T13:50:46.336Z,27.90
2022-12-03T13:53:23.393Z,26.80
2022-12-03T13:55:59.198Z,19.50
2022-12-03T13:58:27.261Z,31.90
2022-12-03T14:00:55.680Z,32.10
2022-12-03T14:03:23.718Z,28.70
2022-12-03T14:05:51.725Z,27.50
2022-12-03T14:08:19.853Z,26.20
2022-12-03T14:10:47.976Z,28.60
2022-12-03T14:13:15.980Z,34.80
2022-12-03T14:15:44.143Z,39.00
2022-12-03T14:18:12.174Z,34.30
2022-12-03T14:20:40.198Z,38.00
2022-12-03T14:23:08.259Z,37.40
2022-12-03T14:25:36.322Z,40.80
2022-12-03T14:28:08.776Z,35.90
2022-12-03T14:30:37.283Z,40.00
2022-12-03T14:33:05.342Z,33.80
2022-12-03T14:35:33.343Z,32.50
2022-12-03T14:38:01.353Z,31.30
2022-12-03T14:40:29.362Z,33.80
2022-12-03T14:42:57.424Z,35.50
2022-12-03T14:45:27.779Z,35.80
2022-12-03T14:47:56.253Z,37.40
2022-12-03T14:50:26.943Z,18.50
2022-12-03T14:52:55.070Z,38.80
2022-12-03T14:55:23.276Z,35.10
2022-12-03T14:57:51.421Z,30.40
2022-12-03T15:00:20.392Z,29.80
2022-12-03T15:02:48.475Z,30.60
2022-12-03T15:05:16.744Z,36.20
2022-12-03T15:07:45.150Z,44.40
2022-12-03T15:10:13.265Z,43.50
2022-12-03T15:12:41.295Z,48.60
2022-12-03T15:15:10.460Z,45.80
2022-12-03T15:17:38.610Z,41.20
2022-12-03T15:20:07.637Z,39.20
2022-12-03T15:22:35.655Z,35.90
2022-12-03T15:25:04.163Z,33.20
2022-12-03T15:27:32.218Z,32.90
2022-12-03T15:30:00.334Z,37.20
2022-12-03T15:32:28.474Z,33.00
2022-12-03T15:34:56.549Z,38.90
2022-12-03T15:37:27.765Z,34.80
2022-12-03T15:39:56.240Z,35.90
2022-12-03T15:42:24.640Z,36.60
2022-12-03T15:44:52.692Z,40.60
2022-12-03T15:47:20.777Z,46.00
2022-12-03T15:49:49.048Z,52.00
2022-12-03T15:52:17.179Z,63.20
2022-12-03T15:54:46.225Z,78.60
2022-12-03T15:57:14.269Z,81.60
2022-12-03T15:59:43.300Z,81.80
2022-12-03T16:02:11.476Z,84.30
2022-12-03T16:04:39.814Z,87.30
2022-12-03T16:07:07.931Z,74.70
2022-12-03T16:09:36.105Z,63.40
2022-12-03T16:12:04.364Z,65.80
2022-12-03T16:14:32.623Z,85.20
2022-12-03T16:17:01.213Z,97.60
2022-12-03T16:19:29.209Z,83.90
2022-12-03T16:21:57.388Z,80.20
2022-12-03T16:24:25.446Z,95.40
2022-12-03T16:26:53.580Z,85.50
2022-12-03T16:29:21.708Z,90.10
2022-12-03T16:31:49.761Z,86.50
2022-12-03T16:34:17.813Z,80.50
2022-12-03T16:36:45.971Z,70.80
2022-12-03T16:39:14.038Z,82.60
2022-12-03T16:41:42.127Z,88.80
2022-12-03T16:44:20.254Z,89.80
2022-12-03T16:46:48.450Z,91.00
2022-12-03T16:49:16.927Z,106.40
2022-12-03T16:51:44.993Z,117.30
2022-12-03T16:54:13.035Z,110.80
2022-12-03T16:56:41.035Z,105.40
2022-12-03T16:59:09.070Z,102.00
2022-12-03T17:01:37.154Z,97.80
2022-12-03T17:04:05.215Z,91.40
2022-12-03T17:06:33.238Z,88.50
2022-12-03T17:09:01.697Z,82.90
2022-12-03T17:11:29.814Z,73.70
2022-12-03T17:13:57.851Z,76.60
2022-12-03T17:16:25.984Z,74.60
2022-12-03T17:18:54.058Z,82.60
2022-12-03T17:21:22.233Z,96.10
2022-12-03T17:23:51.225Z,103.90
2022-12-03T17:26:19.928Z,105.40
2022-12-03T17:28:48.026Z,108.20
2022-12-03T17:31:16.192Z,103.60
2022-12-03T17:33:44.244Z,106.80
2022-12-03T17:36:12.298Z,129.40
2022-12-03T17:38:40.681Z,130.40
2022-12-03T17:41:08.777Z,122.70
2022-12-03T17:43:36.868Z,92.20
2022-12-03T17:46:06.823Z,97.70
2022-12-03T17:48:35.537Z,93.80
2022-12-03T17:51:03.696Z,76.30
2022-12-03T17:53:31.715Z,67.30
2022-12-03T17:55:59.754Z,63.40
2022-12-03T17:58:28.668Z,55.50
2022-12-03T18:01:02.069Z,53.70
2022-12-03T18:03:31.782Z,55.10
2022-12-03T18:05:59.920Z,55.70
2022-12-03T18:08:28.094Z,56.20
2022-12-03T18:10:56.203Z,60.80
2022-12-03T18:13:24.268Z,48.30
2022-12-03T18:15:52.320Z,45.00
2022-12-03T18:18:20.392Z,47.50
2022-12-03T18:20:48.472Z,46.20
2022-12-03T18:23:16.526Z,46.90
2022-12-03T18:25:44.612Z,58.40
2022-12-03T18:28:12.672Z,56.40
2022-12-03T18:30:40.716Z,46.30
2022-12-03T18:33:08.767Z,43.50
2022-12-03T18:35:37.014Z,42.70
2022-12-03T18:38:05.418Z,44.30
2022-12-03T18:40:33.542Z,43.30
2022-12-03T18:43:01.557Z,42.00
2022-12-03T18:45:29.605Z,57.10
2022-12-03T18:47:57.809Z,51.80
2022-12-03T18:50:26.068Z,57.90
2022-12-03T18:52:54.104Z,70.10
2022-12-03T18:55:22.258Z,65.40
2022-12-03T18:57:50.347Z,65.10
2022-12-03T19:00:18.755Z,75.60
2022-12-03T19:03:03.953Z,80.20
2022-12-03T19:05:34.320Z,70.70
2022-12-03T19:08:03.306Z,61.80
2022-12-03T19:10:31.444Z,80.00
2022-12-03T19:12:59.521Z,59.70
2022-12-03T19:15:27.614Z,49.60
2022-12-03T19:17:55.688Z,54.00
2022-12-03T19:20:23.741Z,49.10
2022-12-03T19:22:51.732Z,43.10
2022-12-03T19:25:19.812Z,43.70
2022-12-03T19:27:50.253Z,39.90
2022-12-03T19:30:18.326Z,37.60
2022-12-03T19:32:46.653Z,38.70
2022-12-03T19:35:14.671Z,32.80
2022-12-03T19:37:42.832Z,36.90
2022-12-03T19:40:11.103Z,35.30
2022-12-03T19:42:39.266Z,35.70
2022-12-03T19:45:08.740Z,32.80
2022-12-03T19:47:37.327Z,30.50
2022-12-03T19:50:06.816Z,33.70
2022-12-03T19:55:03.780Z,31.90
2022-12-03T19:57:31.826Z,38.50
2022-12-03T20:00:01.296Z,40.50
2022-12-03T20:02:29.564Z,43.90
2022-12-03T20:04:57.850Z,43.70
2022-12-03T20:07:25.979Z,41.10
2022-12-03T20:09:54.500Z,42.10
2022-12-03T20:12:22.805Z,41.80
2022-12-03T20:14:51.855Z,32.60
2022-12-03T20:17:20.021Z,34.00
2022-12-03T20:19:48.241Z,35.70
2022-12-03T20:22:16.285Z,29.90
2022-12-03T20:24:44.334Z,29.90
2022-12-03T20:27:12.372Z,28.50
2022-12-03T20:29:40.384Z,31.40
2022-12-03T20:32:08.719Z,33.70
2022-12-03T20:34:36.922Z,30.20
2022-12-03T20:37:04.977Z,32.50
2022-12-03T20:39:33.033Z,27.40
2022-12-03T20:42:01.082Z,30.10
2022-12-03T20:44:29.157Z,32.10
2022-12-03T20:46:57.240Z,34.70
2022-12-03T20:49:25.287Z,34.80
2022-12-03T20:51:53.358Z,34.70
2022-12-03T20:54:21.480Z,30.40
2022-12-03T20:56:50.207Z,37.50
2022-12-03T20:59:18.349Z,33.80
2022-12-03T21:01:46.565Z,29.20
2022-12-03T21:04:16.240Z,28.90
2022-12-03T21:06:45.668Z,27.00
2022-12-03T21:09:14.274Z,35.50
2022-12-03T21:11:42.689Z,26.80
2022-12-03T21:14:11.414Z,33.00
2022-12-03T21:17:06.643Z,27.70
2022-12-03T21:19:28.425Z,26.50
2022-12-03T21:21:56.607Z,24.90
2022-12-03T21:24:24.834Z,25.80
2022-12-03T21:26:52.913Z,26.20
2022-12-03T21:29:20.939Z,27.60
2022-12-03T21:31:48.980Z,27.80
2022-12-03T21:34:17.136Z,25.40
2022-12-03T21:36:45.185Z,23.40
2022-12-03T21:39:13.261Z,39.40
2022-12-03T21:41:41.395Z,43.00
2022-12-03T21:44:30.993Z,28.00
2022-12-03T21:49:42.080Z,32.10
2022-12-03T21:52:10.730Z,27.80
2022-12-03T21:54:38.922Z,25.30
2022-12-03T21:57:07.053Z,27.10
2022-12-03T21:59:35.245Z,28.20
2022-12-03T22:02:03.937Z,27.00
2022-12-03T22:04:32.147Z,25.60
2022-12-03T22:07:00.196Z,26.80
2022-12-03T22:09:28.397Z,25.30
2022-12-03T22:11:59.367Z,19.50
2022-12-03T22:14:28.403Z,25.30
2022-12-03T22:16:56.512Z,22.60
2022-12-03T22:19:26.117Z,21.10
2022-12-03T22:21:54.204Z,23.10
2022-12-03T22:24:23.882Z,22.40
2022-12-03T22:26:53.644Z,23.20
2022-12-03T22:29:22.091Z,21.90
2022-12-03T22:31:50.409Z,22.70
2022-12-03T22:34:18.579Z,23.80
2022-12-03T22:36:46.655Z,22.00
2022-12-03T22:39:14.701Z,21.40
2022-12-03T22:41:42.776Z,23.10
2022-12-03T22:44:11.594Z,23.00
2022-12-03T22:46:39.808Z,23.80
2022-12-03T22:49:08.166Z,21.90
2022-12-03T22:51:36.324Z,20.20
2022-12-03T22:54:05.696Z,22.00
2022-12-03T22:56:33.825Z,21.90
2022-12-03T22:59:01.906Z,20.40
2022-12-03T23:01:35.606Z,21.20
2022-12-03T23:04:04.692Z,19.80
2022-12-03T23:06:35.175Z,19.20
2022-12-03T23:09:05.736Z,17.60
2022-12-03T23:11:34.597Z,17.80
2022-12-03T23:14:03.354Z,20.30
2022-12-03T23:16:33.350Z,19.80
2022-12-03T23:19:02.717Z,20.50
2022-12-03T23:21:34.183Z,21.20
2022-12-03T23:24:03.886Z,20.90
2022-12-03T23:26:36.042Z,22.80
2022-12-03T23:29:07.905Z,24.10
2022-12-03T23:34:07.525Z,19.90
2022-12-03T23:36:42.770Z,18.00
2022-12-03T23:39:13.094Z,18.00
2022-12-03T23:41:44.635Z,21.00
2022-12-03T23:44:12.673Z,18.80
2022-12-03T23:46:40.848Z,17.40
2022-12-03T23:49:14.944Z,19.00
2022-12-03T23:51:43.038Z,16.60
2022-12-03T23:54:12.263Z,18.20
2022-12-03T23:56:42.523Z,17.90
2022-12-03T23:59:10.636Z,18.30
